Time;durP1;ratioP1;P1;durP2;ratioP2;P2;SDS_P1;SDS_P2;PMS_P1;PMS_P2;Temp;Humidity;BMP_temperature;BMP_pressure;BME280_temperature;BME280_humidity;BME280_pressure;Samples;Min_cycle;Max_cycle;Signal;HPM_P1;HPM_P2
2021/03/24 00:00:37;;;;;;;248.30;92.68;;;0.70;99.90;;;;;;4997780;28;20089;-77
2021/03/24 00:03:04;;;;;;;282.98;93.40;;;0.60;99.90;;;;;;5006528;28;20076;-78
2021/03/24 00:05:34;;;;;;;249.23;86.78;;;0.90;99.90;;;;;;5006375;28;20494;-78
2021/03/24 00:08:01;;;;;;;236.85;86.70;;;1.10;99.90;;;;;;5006175;28;20481;-78
2021/03/24 00:10:28;;;;;;;239.98;86.90;;;1.00;99.90;;;;;;5006734;28;20060;-79
2021/03/24 00:12:56;;;;;;;226.93;85.40;;;0.80;99.90;;;;;;5007255;28;20049;-79
2021/03/24 00:15:23;;;;;;;206.10;80.97;;;0.70;99.90;;;;;;5007851;28;20053;-79
2021/03/24 00:17:50;;;;;;;223.25;82.55;;;0.70;99.90;;;;;;5006353;28;20061;-79
2021/03/24 00:20:19;;;;;;;241.77;84.15;;;0.60;99.90;;;;;;4988766;28;20388;-77
2021/03/24 00:22:46;;;;;;;219.77;83.57;;;0.50;99.90;;;;;;4990896;28;20081;-78
2021/03/24 00:25:15;;;;;;;210.63;83.18;;;0.50;99.90;;;;;;4989209;28;20046;-79
2021/03/24 00:27:43;;;;;;;233.68;82.32;;;0.40;99.90;;;;;;5007086;28;20045;-79
2021/03/24 00:30:11;;;;;;;229.65;82.60;;;0.40;99.90;;;;;;4990010;28;20469;-78
2021/03/24 00:32:37;;;;;;;208.50;78.43;;;0.40;99.90;;;;;;4989879;28;20385;-78
2021/03/24 00:35:08;;;;;;;228.20;82.32;;;0.30;99.90;;;;;;5005589;28;20556;-78
2021/03/24 00:37:35;;;;;;;201.07;78.28;;;0.30;99.90;;;;;;4973997;28;20528;-78
2021/03/24 00:40:02;;;;;;;220.90;80.70;;;0.30;99.90;;;;;;4990174;28;20137;-78
2021/03/24 00:42:28;;;;;;;231.00;82.15;;;0.40;99.90;;;;;;5006156;28;20058;-78
2021/03/24 00:44:54;;;;;;;246.05;82.85;;;0.50;99.90;;;;;;5007016;28;20049;-79
2021/03/24 00:47:21;;;;;;;239.02;81.85;;;0.50;99.90;;;;;;5007826;28;20145;-79
2021/03/24 00:49:47;;;;;;;238.65;86.05;;;0.40;99.90;;;;;;4991865;28;20055;-79
2021/03/24 00:52:31;;;;;;;233.82;83.28;;;0.40;99.90;;;;;;4991141;28;20049;-79
2021/03/24 00:54:57;;;;;;;161.77;55.17;;;0.30;99.90;;;;;;4992630;28;20305;-78
2021/03/24 00:57:24;;;;;;;163.75;63.17;;;0.40;99.90;;;;;;5004734;28;20050;-79
2021/03/24 00:59:50;;;;;;;150.23;57.20;;;0.50;99.90;;;;;;4987896;28;20529;-78
2021/03/24 01:02:16;;;;;;;160.60;57.70;;;0.30;99.90;;;;;;4993612;28;20498;-78
2021/03/24 01:04:43;;;;;;;140.18;52.13;;;0.20;99.90;;;;;;4995400;28;20045;-78
2021/03/24 01:07:11;;;;;;;137.85;56.35;;;0.20;99.90;;;;;;5010547;28;20141;-78
2021/03/24 01:09:39;;;;;;;140.93;55.25;;;0.20;99.90;;;;;;5011118;28;20045;-78
2021/03/24 01:12:07;;;;;;;146.27;53.63;;;0.00;99.90;;;;;;5012279;28;20052;-78
2021/03/24 01:14:33;;;;;;;145.00;55.78;;;0.00;99.90;;;;;;4995613;28;20044;-78
2021/03/24 01:17:00;;;;;;;130.25;51.55;;;0.00;99.90;;;;;;5011229;28;20062;-79
2021/03/24 01:19:26;;;;;;;135.35;52.03;;;0.00;99.90;;;;;;4995632;28;20148;-78
2021/03/24 01:21:53;;;;;;;155.52;59.22;;;0.00;99.90;;;;;;5008590;28;20270;-78
2021/03/24 01:24:19;;;;;;;166.82;62.80;;;0.10;99.90;;;;;;4994230;28;20053;-78
2021/03/24 01:26:46;;;;;;;172.90;62.22;;;0.20;99.90;;;;;;4993622;28;20589;-78
2021/03/24 01:29:12;;;;;;;136.13;56.97;;;0.10;99.90;;;;;;4976659;28;20575;-78
2021/03/24 01:31:38;;;;;;;163.80;61.47;;;0.00;99.90;;;;;;4992480;28;20062;-77
2021/03/24 01:34:05;;;;;;;167.50;60.78;;;0.10;99.90;;;;;;5009012;28;20144;-80
2021/03/24 01:36:31;;;;;;;169.13;63.05;;;0.10;99.90;;;;;;4990757;28;20038;-78
2021/03/24 01:38:58;;;;;;;158.10;60.03;;;0.00;99.90;;;;;;5009988;28;20054;-79
2021/03/24 01:41:27;;;;;;;154.95;57.50;;;-0.10;99.90;;;;;;5010028;28;20050;-79
2021/03/24 01:43:55;;;;;;;145.43;55.88;;;-0.10;99.90;;;;;;4993428;28;20077;-79
2021/03/24 01:46:32;;;;;;;156.60;57.40;;;-0.10;99.90;;;;;;4993659;28;20141;-79
2021/03/24 01:49:07;;;;;;;165.40;59.92;;;-0.10;99.90;;;;;;4991880;28;20037;-79
2021/03/24 01:51:49;;;;;;;146.77;58.45;;;-0.20;99.90;;;;;;5007404;28;20058;-79
2021/03/24 01:54:27;;;;;;;156.90;60.08;;;-0.10;99.90;;;;;;5001792;28;20057;-79
2021/03/24 01:57:00;;;;;;;147.77;56.10;;;-0.30;99.90;;;;;;4994309;28;20510;-79
2021/03/24 01:59:26;;;;;;;160.32;62.92;;;-0.30;99.90;;;;;;5014730;28;20057;-79
2021/03/24 02:01:54;;;;;;;150.63;57.47;;;-0.40;99.90;;;;;;5010573;28;20046;-79
2021/03/24 02:04:21;;;;;;;155.75;59.83;;;-0.30;99.90;;;;;;5012208;28;20080;-80
2021/03/24 02:07:12;;;;;;;160.07;60.80;;;-0.40;99.90;;;;;;4994140;28;20544;-79
2021/03/24 02:09:59;;;;;;;158.93;56.30;;;-0.40;99.90;;;;;;5010834;28;20544;-78
2021/03/24 02:12:28;;;;;;;162.85;58.17;;;-0.20;99.90;;;;;;4993574;28;20574;-79
2021/03/24 02:15:07;;;;;;;169.38;61.33;;;-0.10;99.90;;;;;;5012795;28;20049;-79
2021/03/24 02:17:39;;;;;;;160.45;58.45;;;0.00;99.90;;;;;;5012152;28;20070;-79
2021/03/24 02:20:09;;;;;;;167.95;56.92;;;0.00;99.90;;;;;;5012636;28;20498;-79
2021/03/24 02:22:45;;;;;;;172.10;60.22;;;0.00;99.90;;;;;;4991063;28;20073;-80
2021/03/24 02:25:23;;;;;;;170.07;59.80;;;0.00;99.90;;;;;;5013862;28;20078;-79
2021/03/24 02:27:54;;;;;;;152.30;55.47;;;0.00;99.90;;;;;;5002053;28;20049;-81
2021/03/24 02:30:26;;;;;;;159.48;58.08;;;-0.10;99.90;;;;;;5001164;28;20553;-78
2021/03/24 02:32:58;;;;;;;153.20;55.47;;;-0.20;99.90;;;;;;4983938;28;20092;-78
2021/03/24 02:35:31;;;;;;;152.43;56.05;;;-0.40;99.90;;;;;;5017236;28;20062;-79
2021/03/24 02:38:00;;;;;;;162.32;56.67;;;-0.40;99.90;;;;;;5007966;28;20042;-79
2021/03/24 02:40:29;;;;;;;170.90;60.30;;;-0.40;99.90;;;;;;5005133;28;20073;-78
2021/03/24 02:42:56;;;;;;;169.90;60.42;;;-0.30;99.90;;;;;;4991245;28;20141;-80
2021/03/24 02:45:25;;;;;;;151.27;59.58;;;-0.30;99.90;;;;;;5007365;28;20080;-78
2021/03/24 02:47:52;;;;;;;158.05;57.35;;;-0.50;99.90;;;;;;5023897;28;20054;-79
2021/03/24 02:50:20;;;;;;;154.05;55.88;;;-0.50;99.90;;;;;;5008336;28;20056;-79
2021/03/24 02:52:48;;;;;;;149.05;57.05;;;-0.50;99.90;;;;;;4988797;28;20141;-79
2021/03/24 02:55:16;;;;;;;157.35;58.22;;;-0.50;99.90;;;;;;4987810;28;20474;-80
2021/03/24 02:57:43;;;;;;;158.52;56.10;;;-0.40;99.90;;;;;;4989696;28;20484;-79
2021/03/24 03:00:16;;;;;;;155.65;54.55;;;-0.50;99.90;;;;;;5003998;28;20058;-78
2021/03/24 03:02:49;;;;;;;131.38;49.13;;;-0.60;99.90;;;;;;5013171;28;20096;-80
2021/03/24 03:05:20;;;;;;;141.70;51.70;;;-0.70;99.90;;;;;;5007145;28;20107;-78
2021/03/24 03:07:51;;;;;;;137.27;52.08;;;-0.70;99.90;;;;;;4989923;28;20140;-78
2021/03/24 03:10:34;;;;;;;131.70;54.65;;;-0.60;99.90;;;;;;4990946;28;20053;-78
2021/03/24 03:13:25;;;;;;;167.57;58.63;;;-0.70;99.90;;;;;;4990313;28;20048;-79
2021/03/24 03:15:55;;;;;;;164.35;57.92;;;-0.60;99.90;;;;;;5006488;28;20056;-79
2021/03/24 03:18:28;;;;;;;191.15;59.15;;;-0.40;99.90;;;;;;4990521;28;20049;-79
2021/03/24 03:21:00;;;;;;;168.90;57.08;;;-0.30;99.90;;;;;;4995965;28;20053;-80
2021/03/24 03:23:30;;;;;;;158.40;56.03;;;-0.20;99.90;;;;;;5007386;28;20046;-79
2021/03/24 03:26:19;;;;;;;161.45;54.83;;;-0.20;99.90;;;;;;5006554;28;20073;-79
2021/03/24 03:28:52;;;;;;;170.25;53.17;;;-0.40;99.90;;;;;;4990440;28;20053;-78
2021/03/24 03:31:24;;;;;;;192.88;61.60;;;-0.50;99.90;;;;;;4990520;28;20050;-78
2021/03/24 03:33:53;;;;;;;168.00;57.33;;;-0.50;99.90;;;;;;5007313;28;20050;-79
2021/03/24 03:36:22;;;;;;;185.75;58.65;;;-0.50;99.90;;;;;;4989784;28;20050;-80
2021/03/24 03:38:53;;;;;;;190.32;61.90;;;-0.60;99.90;;;;;;5007084;28;20486;-78
2021/03/24 03:41:21;;;;;;;179.00;59.08;;;-0.50;99.90;;;;;;5005972;28;20485;-78
2021/03/24 03:43:52;;;;;;;186.55;61.50;;;-0.50;99.90;;;;;;5007509;28;20148;-79
2021/03/24 03:46:22;;;;;;;187.30;60.05;;;-0.60;99.90;;;;;;4989414;28;20569;-79
2021/03/24 03:48:49;;;;;;;186.90;61.65;;;-0.70;99.90;;;;;;5006365;28;20414;-79
2021/03/24 03:51:30;;;;;;;150.27;56.55;;;-0.70;99.90;;;;;;4988784;28;20049;-80
2021/03/24 03:54:22;;;;;;;147.95;52.15;;;-0.80;99.90;;;;;;4986708;28;20141;-79
2021/03/24 03:57:15;;;;;;;177.77;58.67;;;-0.80;99.90;;;;;;4972109;28;20149;-78
2021/03/24 03:59:50;;;;;;;152.75;55.85;;;-0.90;99.90;;;;;;4988402;28;20054;-79
2021/03/24 04:02:20;;;;;;;189.70;59.53;;;-0.90;99.90;;;;;;5006882;28;20073;-79
2021/03/24 04:04:53;;;;;;;190.48;63.45;;;-0.60;99.90;;;;;;4990874;28;20103;-77
2021/03/24 04:07:25;;;;;;;166.45;59.53;;;-0.50;99.90;;;;;;5005536;28;20038;-78
2021/03/24 04:09:55;;;;;;;180.05;59.63;;;-0.70;99.90;;;;;;5024166;28;20092;-78
2021/03/24 04:12:25;;;;;;;163.48;55.88;;;-0.60;99.90;;;;;;5010025;28;20053;-78
2021/03/24 04:14:53;;;;;;;148.48;54.15;;;-0.70;99.90;;;;;;4995130;28;20041;-79
2021/03/24 04:17:25;;;;;;;156.50;53.53;;;-0.80;99.90;;;;;;4995495;28;20104;-80
2021/03/24 04:19:54;;;;;;;143.15;54.17;;;-0.80;99.90;;;;;;5006439;28;20045;-78
2021/03/24 04:22:26;;;;;;;142.57;53.38;;;-0.90;99.90;;;;;;4989288;28;20057;-79
2021/03/24 04:25:13;;;;;;;136.95;52.58;;;-1.00;99.90;;;;;;4976272;28;20061;-79
2021/03/24 04:27:41;;;;;;;156.77;54.30;;;-1.00;99.90;;;;;;4985976;28;20057;-79
2021/03/24 04:30:11;;;;;;;159.82;53.08;;;-1.00;99.90;;;;;;5005238;28;20078;-79
2021/03/24 04:32:37;;;;;;;157.43;55.10;;;-1.00;99.90;;;;;;4991740;28;20045;-80
2021/03/24 04:35:05;;;;;;;172.98;56.78;;;-0.90;99.90;;;;;;4992469;28;20082;-79
2021/03/24 04:37:44;;;;;;;165.02;56.47;;;-0.90;99.90;;;;;;5007573;28;20104;-79
2021/03/24 04:40:34;;;;;;;152.45;53.70;;;-1.00;99.90;;;;;;4997683;28;20065;-77
2021/03/24 04:43:22;;;;;;;172.50;56.22;;;-1.00;99.90;;;;;;4980643;28;20420;-79
2021/03/24 04:46:10;;;;;;;170.30;53.67;;;-1.00;99.90;;;;;;4985411;28;20108;-79
2021/03/24 04:48:43;;;;;;;154.95;55.25;;;-1.00;99.90;;;;;;5009831;28;20148;-78
2021/03/24 04:51:13;;;;;;;194.02;58.90;;;-1.00;99.90;;;;;;4983631;28;20084;-79
2021/03/24 04:53:46;;;;;;;179.35;58.28;;;-0.90;99.90;;;;;;4999864;28;20133;-79
2021/03/24 04:56:16;;;;;;;171.77;56.80;;;-1.00;99.90;;;;;;4990555;28;20050;-79
2021/03/24 04:58:45;;;;;;;161.05;57.13;;;-1.00;99.90;;;;;;4993910;28;20046;-79
2021/03/24 05:01:20;;;;;;;173.45;62.22;;;-0.80;99.90;;;;;;4993556;28;20042;-80
2021/03/24 05:03:49;;;;;;;;;;;-0.90;99.90;;;;;;4990379;28;20054;-80
2021/03/24 05:06:40;;;;;;;171.45;53.33;;;-1.00;99.90;;;;;;5006744;28;19980;-79
2021/03/24 05:09:08;;;;;;;166.35;54.75;;;-1.00;99.90;;;;;;4990073;28;20475;-79
2021/03/24 05:11:42;;;;;;;175.75;55.78;;;-1.00;99.90;;;;;;5005942;28;20073;-82
2021/03/24 05:14:27;;;;;;;164.60;53.78;;;-0.90;99.90;;;;;;4980547;28;20255;-80
2021/03/24 05:17:11;;;;;;;178.98;54.65;;;-0.80;99.90;;;;;;5001022;28;20125;-79
2021/03/24 05:19:38;;;;;;;164.65;57.50;;;-0.80;99.90;;;;;;4993426;28;20081;-79
2021/03/24 05:22:11;;;;;;;148.65;53.72;;;-0.90;99.90;;;;;;4992201;28;20050;-79
2021/03/24 05:24:40;;;;;;;148.15;54.13;;;-0.90;99.90;;;;;;4993771;28;20077;-78
2021/03/24 05:27:21;;;;;;;203.60;60.40;;;-0.90;99.90;;;;;;5009786;28;20580;-80
2021/03/24 05:29:59;;;;;;;177.65;59.83;;;-0.80;99.90;;;;;;4994938;28;20077;-79
2021/03/24 05:32:32;;;;;;;175.52;58.00;;;-0.80;99.90;;;;;;4992993;28;20046;-79
2021/03/24 05:35:00;;;;;;;210.02;62.70;;;-0.80;99.90;;;;;;4993578;28;20049;-79
2021/03/24 05:37:29;;;;;;;199.73;63.45;;;-0.60;99.90;;;;;;5007855;28;20133;-79
2021/03/24 05:40:25;;;;;;;188.63;59.58;;;-0.50;99.90;;;;;;4993658;28;20100;-80
2021/03/24 05:43:09;;;;;;;193.23;61.88;;;-0.40;99.90;;;;;;5003761;28;20064;-79
2021/03/24 05:45:47;;;;;;;169.63;56.38;;;-0.40;99.90;;;;;;4983347;28;20742;-79
2021/03/24 05:48:32;;;;;;;165.90;57.10;;;-0.20;99.90;;;;;;5008862;28;20081;-80
2021/03/24 05:51:36;;;;;;;169.95;58.22;;;0.00;99.90;;;;;;5008611;28;20128;-79
2021/03/24 05:54:40;;;;;;;185.52;58.42;;;0.10;99.90;;;;;;4972656;28;20050;-79
2021/03/24 05:57:41;;;;;;;148.13;52.83;;;0.10;99.90;;;;;;4998306;28;20050;-79
2021/03/24 06:00:36;;;;;;;135.32;48.65;;;0.10;99.90;;;;;;4957084;28;20149;-80
2021/03/24 06:03:13;;;;;;;135.48;51.78;;;0.00;99.90;;;;;;4958303;28;20042;-79
2021/03/24 06:06:15;;;;;;;135.05;47.50;;;-0.10;99.90;;;;;;4975586;28;20060;-80
2021/03/24 06:09:08;;;;;;;143.50;50.00;;;0.00;99.90;;;;;;4971854;28;20061;-79
2021/03/24 06:11:34;;;;;;;141.95;52.63;;;-0.10;99.90;;;;;;4971444;28;20089;-79
2021/03/24 06:14:28;;;;;;;135.90;50.63;;;-0.10;99.90;;;;;;4978122;28;20048;-79
2021/03/24 06:17:23;;;;;;;124.20;48.17;;;-0.10;99.90;;;;;;4983166;28;20631;-79
2021/03/24 06:20:14;;;;;;;140.93;50.60;;;0.00;99.90;;;;;;4974377;28;20206;-79
2021/03/24 06:22:49;;;;;;;131.85;50.78;;;0.10;99.90;;;;;;4957449;28;20078;-78
2021/03/24 06:25:20;;;;;;;;;;;0.10;99.90;;;;;;4956262;28;20058;-79
2021/03/24 06:28:29;;;;;;;162.50;52.78;;;0.30;99.90;;;;;;4956121;28;19984;-79
2021/03/24 06:31:37;;;;;;;141.20;52.40;;;0.30;99.90;;;;;;4951082;28;20508;-78
2021/03/24 06:34:20;;;;;;;149.07;51.35;;;0.40;99.90;;;;;;4958075;28;20046;-78
2021/03/24 06:37:06;;;;;;;140.68;52.30;;;0.40;99.90;;;;;;4982939;28;20155;-78
2021/03/24 06:39:48;;;;;;;187.95;59.83;;;0.60;99.90;;;;;;5007951;28;20491;-79
2021/03/24 06:42:46;;;;;;;184.48;58.72;;;0.70;99.90;;;;;;4990519;28;20109;-79
2021/03/24 06:45:43;;;;;;;189.43;59.70;;;0.70;99.90;;;;;;4971517;28;20081;-79
2021/03/24 06:48:22;;;;;;;172.77;56.80;;;0.80;99.90;;;;;;4990258;28;20053;-79
2021/03/24 06:51:15;;;;;;;181.85;58.63;;;0.90;99.90;;;;;;4991257;28;20045;-78
2021/03/24 06:54:00;;;;;;;175.25;57.67;;;1.00;99.90;;;;;;4988075;28;20166;-77
2021/03/24 06:57:00;;;;;;;162.85;59.20;;;1.20;99.90;;;;;;4980960;28;20054;-79
2021/03/24 07:00:02;;;;;;;197.23;59.17;;;1.30;99.90;;;;;;4989875;28;20046;-78
2021/03/24 07:02:53;;;;;;;195.40;59.97;;;1.40;99.90;;;;;;5006066;28;20049;-79
2021/03/24 07:06:05;;;;;;;202.65;62.60;;;1.50;99.90;;;;;;5003426;28;20148;-78
2021/03/24 07:09:09;;;;;;;170.93;56.45;;;1.70;99.90;;;;;;4955345;28;20046;-78
2021/03/24 07:11:50;;;;;;;173.15;60.60;;;1.80;99.90;;;;;;4986181;28;20049;-77
2021/03/24 07:14:48;;;;;;;183.15;55.47;;;2.00;99.90;;;;;;4980592;28;20129;-80
2021/03/24 07:17:33;;;;;;;177.27;58.63;;;2.10;99.90;;;;;;4983656;28;20106;-78
2021/03/24 07:20:22;;;;;;;;;;;2.20;99.90;;;;;;4979970;28;20054;-78
2021/03/24 07:23:02;;;;;;;171.57;57.15;;;2.50;99.90;;;;;;5022317;28;19921;-79
2021/03/24 07:25:53;;;;;;;174.88;56.58;;;2.80;99.90;;;;;;5007300;28;20046;-78
2021/03/24 07:28:54;;;;;;;155.02;54.80;;;3.10;99.90;;;;;;4989933;28;20097;-78
2021/03/24 07:31:38;;;;;;;132.45;49.63;;;3.30;99.90;;;;;;4987337;28;20065;-79
2021/03/24 07:34:43;;;;;;;128.20;48.70;;;3.40;99.90;;;;;;5003040;28;20161;-78
2021/03/24 07:37:28;;;;;;;111.88;44.15;;;3.60;99.90;;;;;;5014071;28;20112;-78
2021/03/24 07:40:03;;;;;;;116.28;49.05;;;3.90;99.90;;;;;;5007408;28;20147;-80
2021/03/24 07:43:01;;;;;;;97.75;42.15;;;4.30;99.90;;;;;;4998869;28;20042;-80
2021/03/24 07:45:33;;;;;;;83.28;40.10;;;4.80;99.90;;;;;;4981597;28;20077;-78
2021/03/24 07:48:24;;;;;;;62.25;34.10;;;5.40;99.90;;;;;;4985920;28;20034;-78
2021/03/24 07:51:15;;;;;;;66.15;35.28;;;5.90;99.90;;;;;;4982415;28;20498;-78
2021/03/24 07:53:54;;;;;;;68.43;38.80;;;6.20;99.90;;;;;;4986787;28;20062;-77
2021/03/24 07:56:43;;;;;;;69.78;39.67;;;6.60;99.90;;;;;;5005531;28;20459;-78
2021/03/24 07:59:51;;;;;;;64.85;40.25;;;7.00;99.90;;;;;;4988600;28;20157;-78
2021/03/24 08:02:40;;;;;;;82.93;44.15;;;7.50;99.90;;;;;;4986432;28;20054;-78
2021/03/24 08:05:41;;;;;;;59.30;36.20;;;7.90;99.90;;;;;;4996753;28;20857;-77
2021/03/24 08:08:17;;;;;;;55.65;36.47;;;8.40;99.90;;;;;;5000998;28;20141;-79
2021/03/24 08:11:07;;;;;;;62.10;36.13;;;8.70;99.90;;;;;;4990311;28;20050;-78
2021/03/24 08:14:05;;;;;;;62.72;40.75;;;8.90;99.90;;;;;;4994608;28;20049;-78
2021/03/24 08:16:51;;;;;;;61.10;39.17;;;9.10;99.90;;;;;;4992102;28;20054;-78
2021/03/24 08:19:26;;;;;;;66.45;39.42;;;9.20;99.90;;;;;;4983059;28;20093;-77
2021/03/24 08:22:28;;;;;;;53.05;38.05;;;9.60;99.90;;;;;;4998886;28;20137;-78
2021/03/24 08:25:03;;;;;;;54.30;35.42;;;9.90;99.90;;;;;;4956388;28;20046;-78
2021/03/24 08:28:02;;;;;;;52.95;36.00;;;10.30;99.90;;;;;;4988266;28;20054;-80
2021/03/24 08:30:56;;;;;;;55.35;38.45;;;10.70;99.90;;;;;;4960017;28;20042;-78
2021/03/24 08:33:45;;;;;;;51.65;36.13;;;10.90;99.90;;;;;;5005904;28;20064;-78
2021/03/24 08:36:58;;;;;;;56.60;35.97;;;11.10;99.90;;;;;;4978953;28;20096;-79
2021/03/24 08:40:10;;;;;;;52.67;35.55;;;11.10;99.90;;;;;;4946116;28;20055;-78
2021/03/24 08:42:59;;;;;;;53.47;35.10;;;11.10;99.90;;;;;;4884565;29;20140;-79
2021/03/24 08:45:51;;;;;;;53.63;35.38;;;11.10;99.90;;;;;;4979244;28;20057;-77
2021/03/24 08:48:34;;;;;;;56.70;33.55;;;11.20;99.90;;;;;;4968371;28;20506;-78
2021/03/24 08:51:39;;;;;;;45.03;32.83;;;11.10;99.90;;;;;;4973163;28;20090;-79
2021/03/24 08:54:24;;;;;;;52.92;35.10;;;11.20;99.90;;;;;;4950612;28;20054;-78
2021/03/24 08:57:07;;;;;;;52.97;34.83;;;11.10;99.90;;;;;;4963114;28;20466;-80
2021/03/24 08:59:41;;;;;;;52.25;34.00;;;10.90;99.90;;;;;;4968599;28;20107;-80
2021/03/24 09:02:40;;;;;;;53.78;34.58;;;11.00;99.90;;;;;;4969372;28;20412;-78
2021/03/24 09:05:31;;;;;;;55.17;36.03;;;11.00;99.90;;;;;;4952967;28;20046;-79
2021/03/24 09:08:16;;;;;;;56.90;36.30;;;11.40;99.90;;;;;;4960784;28;20660;-80
2021/03/24 09:10:56;;;;;;;48.05;34.25;;;11.40;99.90;;;;;;4965919;28;20530;-81
2021/03/24 09:13:43;;;;;;;51.42;33.92;;;11.40;99.90;;;;;;4984708;28;20289;-80
2021/03/24 09:16:24;;;;;;;48.83;35.15;;;11.40;99.90;;;;;;4968509;28;20078;-79
2021/03/24 09:18:55;;;;;;;51.67;35.90;;;11.60;99.90;;;;;;4968365;28;20050;-78
2021/03/24 09:21:27;;;;;;;50.20;36.70;;;11.80;99.90;;;;;;4992849;28;20058;-78
2021/03/24 09:24:25;;;;;;;52.03;36.28;;;11.90;99.90;;;;;;4991338;28;20073;-79
2021/03/24 09:27:25;;;;;;;47.15;35.10;;;12.30;99.90;;;;;;5007494;28;20506;-79
2021/03/24 09:30:19;;;;;;;54.28;36.40;;;12.50;99.90;;;;;;4988476;28;20060;-78
2021/03/24 09:33:24;;;;;;;51.10;36.00;;;12.60;99.90;;;;;;4967142;28;20148;-81
2021/03/24 09:36:16;;;;;;;50.33;35.67;;;12.60;99.90;;;;;;4954264;28;20050;-78
2021/03/24 09:38:45;;;;;;;51.10;36.67;;;12.70;99.90;;;;;;4990604;28;20049;-78
2021/03/24 09:41:18;;;;;;;45.92;33.65;;;12.80;99.90;;;;;;4980682;28;20267;-78
2021/03/24 09:43:51;;;;;;;56.80;41.10;;;12.80;99.90;;;;;;4973531;28;20057;-78
2021/03/24 09:46:43;;;;;;;55.83;42.50;;;12.90;99.90;;;;;;4989785;28;20517;-76
2021/03/24 09:49:31;;;;;;;59.72;40.63;;;13.10;99.90;;;;;;4984510;28;20090;-76
2021/03/24 09:52:35;;;;;;;53.17;40.03;;;13.00;99.90;;;;;;4979868;28;20364;-75
2021/03/24 09:55:18;;;;;;;51.70;39.63;;;12.70;99.90;;;;;;4971556;28;20180;-76
2021/03/24 09:58:29;;;;;;;54.60;38.88;;;12.80;99.90;;;;;;4986266;28;20429;-75
2021/03/24 10:01:08;;;;;;;49.95;38.83;;;12.80;99.90;;;;;;4999763;28;20053;-76
2021/03/24 10:03:51;;;;;;;51.33;39.63;;;13.10;99.90;;;;;;5002468;28;20133;-76
2021/03/24 10:06:59;;;;;;;54.67;39.35;;;13.10;99.90;;;;;;4986153;28;20057;-76
2021/03/24 10:09:29;;;;;;;53.03;39.08;;;12.90;99.90;;;;;;4986953;28;20120;-76
2021/03/24 10:12:17;;;;;;;51.78;39.38;;;12.90;99.90;;;;;;4996004;28;20049;-75
2021/03/24 10:15:06;;;;;;;56.08;38.88;;;13.00;99.90;;;;;;5013058;28;20046;-75
2021/03/24 10:17:37;;;;;;;50.33;38.53;;;13.20;99.90;;;;;;4997492;28;20081;-75
2021/03/24 10:20:18;;;;;;;48.17;36.40;;;13.40;99.90;;;;;;4998540;28;20053;-76
2021/03/24 10:22:48;;;;;;;50.15;38.50;;;13.50;99.90;;;;;;4995997;28;20055;-76
2021/03/24 10:25:34;;;;;;;51.17;39.22;;;13.40;99.90;;;;;;5002344;28;20062;-75
2021/03/24 10:28:08;;;;;;;49.17;38.03;;;13.40;99.90;;;;;;4995334;28;20520;-75
2021/03/24 10:30:42;;;;;;;53.90;38.78;;;13.10;99.90;;;;;;4993958;28;20046;-76
2021/03/24 10:33:30;;;;;;;47.35;39.05;;;13.10;99.90;;;;;;4989025;28;20390;-75
2021/03/24 10:36:02;;;;;;;50.03;39.83;;;13.20;99.90;;;;;;5006235;28;20132;-74
2021/03/24 10:38:42;;;;;;;47.28;39.13;;;13.60;99.90;;;;;;5022095;28;20057;-76
2021/03/24 10:41:17;;;;;;;51.63;38.80;;;13.70;99.90;;;;;;5006720;28;20071;-75
2021/03/24 10:44:26;;;;;;;53.78;39.83;;;13.80;99.90;;;;;;4987458;28;20139;-75
2021/03/24 10:47:08;;;;;;;51.38;39.55;;;13.90;99.90;;;;;;4957683;28;20049;-76
2021/03/24 10:49:59;;;;;;;56.63;39.83;;;13.90;99.90;;;;;;5005739;28;20498;-76
2021/03/24 10:52:34;;;;;;;50.63;40.20;;;14.00;99.90;;;;;;4997117;28;20134;-76
2021/03/24 10:55:13;;;;;;;51.33;40.10;;;14.00;99.90;;;;;;4970007;28;20046;-75
2021/03/24 10:57:58;;;;;;;56.13;41.38;;;13.90;99.90;;;;;;4986562;28;20426;-75
2021/03/24 11:00:25;;;;;;;;;;;13.80;99.90;;;;;;4999947;28;20148;-75
2021/03/24 11:03:13;;;;;;;52.38;39.85;;;14.00;99.90;;;;;;5005718;28;19921;-75
2021/03/24 11:05:50;;;;;;;50.25;39.90;;;13.90;99.90;;;;;;4988911;28;20052;-76
2021/03/24 11:08:17;;;;;;;54.97;41.33;;;14.00;99.90;;;;;;4987552;28;20145;-75
2021/03/24 11:10:53;;;;;;;51.65;40.47;;;14.00;99.90;;;;;;4988666;28;20066;-77
2021/03/24 11:13:31;;;;;;;56.83;41.60;;;14.20;99.90;;;;;;4972902;28;20469;-76
2021/03/24 11:16:13;;;;;;;52.25;39.65;;;14.30;99.90;;;;;;5006148;28;20048;-75
2021/03/24 11:18:44;;;;;;;52.40;41.25;;;14.30;99.90;;;;;;5019659;28;20498;-76
2021/03/24 11:21:26;;;;;;;54.53;40.10;;;14.10;99.90;;;;;;4970543;28;20465;-77
2021/03/24 11:23:59;;;;;;;55.00;38.28;;;14.20;99.90;;;;;;4994393;28;20050;-75
2021/03/24 11:26:45;;;;;;;55.35;41.65;;;14.20;99.90;;;;;;5001562;28;20140;-76
2021/03/24 11:29:16;;;;;;;55.58;43.30;;;14.00;99.90;;;;;;5021812;28;20089;-76
2021/03/24 11:31:49;;;;;;;53.35;41.50;;;13.90;99.90;;;;;;4987908;28;20145;-76
2021/03/24 11:34:26;;;;;;;57.53;41.83;;;14.20;99.90;;;;;;5004796;28;20046;-75
2021/03/24 11:37:15;;;;;;;52.05;39.75;;;14.40;99.90;;;;;;4987167;28;20124;-75
2021/03/24 11:39:49;;;;;;;56.85;39.47;;;14.60;99.90;;;;;;5001598;28;20042;-74
2021/03/24 11:42:19;;;;;;;48.93;39.30;;;14.50;99.90;;;;;;4992489;28;20121;-76
2021/03/24 11:44:49;;;;;;;53.00;39.65;;;14.50;99.90;;;;;;4984075;28;20108;-76
2021/03/24 11:47:23;;;;;;;50.50;37.90;;;14.40;99.90;;;;;;5000186;28;20096;-75
2021/03/24 11:50:07;;;;;;;54.92;40.80;;;14.50;99.90;;;;;;4988320;28;20100;-75
2021/03/24 11:53:09;;;;;;;51.70;39.47;;;14.50;99.90;;;;;;5003656;28;20068;-75
2021/03/24 11:55:47;;;;;;;49.50;37.45;;;14.70;99.90;;;;;;4999528;28;20041;-76
2021/03/24 11:58:19;;;;;;;57.35;41.03;;;14.60;99.90;;;;;;4999443;28;20057;-75
2021/03/24 12:01:15;;;;;;;56.78;39.47;;;14.60;99.90;;;;;;5000874;28;20042;-76
2021/03/24 12:04:02;;;;;;;49.53;38.72;;;14.40;99.90;;;;;;5002394;28;20056;-76
2021/03/24 12:07:11;;;;;;;51.72;38.55;;;14.30;99.90;;;;;;5004380;28;20050;-76
2021/03/24 12:09:39;;;;;;;52.17;38.47;;;14.30;99.90;;;;;;5003686;28;20050;-75
2021/03/24 12:12:08;;;;;;;51.00;40.30;;;14.40;99.90;;;;;;5004531;28;20329;-76
2021/03/24 12:14:35;;;;;;;53.97;41.00;;;14.50;99.90;;;;;;4988362;28;20056;-75
2021/03/24 12:17:04;;;;;;;55.00;42.30;;;14.70;99.90;;;;;;4989150;28;20624;-75
2021/03/24 12:19:40;;;;;;;63.28;41.70;;;14.60;99.90;;;;;;4995896;28;20038;-75
2021/03/24 12:22:27;;;;;;;52.85;41.78;;;14.70;99.90;;;;;;4979013;28;20052;-76
2021/03/24 12:25:04;;;;;;;58.55;39.70;;;14.60;99.90;;;;;;5004357;28;20061;-75
2021/03/24 12:27:33;;;;;;;54.40;41.85;;;14.60;99.90;;;;;;5004510;28;20075;-76
2021/03/24 12:30:16;;;;;;;61.13;41.25;;;14.70;99.90;;;;;;5003610;28;20354;-76
2021/03/24 12:32:42;;;;;;;56.42;42.00;;;14.90;99.90;;;;;;5005376;28;20105;-75
2021/03/24 12:35:24;;;;;;;53.50;40.85;;;15.10;99.90;;;;;;5005594;28;20116;-76
2021/03/24 12:37:55;;;;;;;58.75;40.65;;;15.20;99.90;;;;;;5004053;28;20081;-75
2021/03/24 12:40:24;;;;;;;49.80;40.95;;;15.30;99.90;;;;;;5004712;28;20058;-75
2021/03/24 12:42:52;;;;;;;54.13;40.58;;;15.50;99.90;;;;;;5001583;28;20060;-76
2021/03/24 12:45:39;;;;;;;58.75;40.95;;;15.40;99.90;;;;;;5001039;28;20143;-75
2021/03/24 12:48:12;;;;;;;50.42;37.05;;;15.20;99.90;;;;;;4969108;28;20069;-75
2021/03/24 12:50:59;;;;;;;56.40;39.95;;;15.20;99.90;;;;;;4970106;28;20048;-76
2021/03/24 12:53:53;;;;;;;46.53;39.05;;;15.20;99.90;;;;;;4989001;28;20085;-78
2021/03/24 12:56:25;;;;;;;53.92;40.05;;;15.20;99.90;;;;;;4977653;28;20433;-76
2021/03/24 12:59:21;;;;;;;52.13;38.65;;;15.20;99.90;;;;;;4986118;28;20049;-75
2021/03/24 13:02:15;;;;;;;49.45;37.05;;;15.30;99.90;;;;;;5007771;28;20429;-75
2021/03/24 13:04:41;;;;;;;52.90;37.95;;;15.30;99.90;;;;;;5005841;28;20061;-75
2021/03/24 13:07:26;;;;;;;53.90;37.90;;;15.30;99.90;;;;;;5003444;28;20132;-75
2021/03/24 13:10:17;;;;;;;49.85;38.28;;;15.30;99.90;;;;;;4997986;28;20069;-75
2021/03/24 13:13:10;;;;;;;49.22;39.08;;;15.40;99.90;;;;;;4999962;28;20046;-75
2021/03/24 14:01:24;;;;;;;55.55;40.65;;;15.80;99.90;;;;;;5085765;27;20665;-70
2021/03/24 14:04:37;;;;;;;50.90;41.88;;;15.70;99.90;;;;;;5051430;27;20048;-70
2021/03/24 14:07:32;;;;;;;53.80;41.05;;;15.80;99.90;;;;;;5046524;28;20415;-72
2021/03/24 14:10:33;;;;;;;52.35;38.78;;;15.70;99.90;;;;;;5056076;28;20135;-69
2021/03/24 14:13:57;;;;;;;56.47;40.10;;;15.90;99.90;;;;;;5063388;28;20036;-70